createdAt,value
2016-09-29T00:00:07.386Z,966.29
2016-09-29T00:01:07.941Z,966.30
2016-09-29T00:02:07.422Z,966.28
2016-09-29T00:03:07.991Z,966.26
2016-09-29T00:04:07.538Z,966.30
2016-09-29T00:05:08.144Z,966.22
2016-09-29T00:06:07.699Z,966.30
2016-09-29T00:07:08.164Z,966.32
2016-09-29T00:08:07.695Z,966.30
2016-09-29T00:09:08.270Z,966.33
2016-09-29T00:10:07.872Z,966.29
2016-09-29T00:11:07.435Z,966.28
2016-09-29T00:12:07.935Z,966.28
2016-09-29T00:13:07.584Z,966.28
2016-09-29T00:14:08.252Z,966.21
2016-09-29T00:15:07.870Z,966.20
2016-09-29T00:16:07.445Z,966.20
2016-09-29T00:17:08.125Z,966.21
2016-09-29T00:18:07.675Z,966.22
2016-09-29T00:19:08.346Z,966.19
2016-09-29T00:20:07.925Z,966.18
2016-09-29T00:21:07.475Z,966.17
2016-09-29T00:22:07.967Z,966.17
2016-09-29T00:23:07.441Z,966.16
2016-09-29T00:24:07.905Z,966.11
2016-09-29T00:25:07.450Z,966.09
2016-09-29T00:26:07.915Z,966.10
2016-09-29T00:27:07.401Z,966.10
2016-09-29T00:28:07.976Z,966.06
2016-09-29T00:29:07.554Z,966.09
2016-09-29T00:30:08.159Z,966.10
2016-09-29T00:31:07.730Z,966.05
2016-09-29T00:32:08.311Z,966.06
2016-09-29T00:33:07.885Z,966.10
2016-09-29T00:34:07.461Z,966.07
2016-09-29T00:35:08.069Z,966.07
2016-09-29T00:36:07.571Z,966.07
2016-09-29T00:37:07.698Z,966.08
2016-09-29T00:38:08.256Z,966.06
2016-09-29T00:39:07.753Z,966.04
2016-09-29T00:40:14.002Z,966.03
2016-09-29T00:41:07.478Z,966.02
2016-09-29T00:42:08.018Z,966.02
2016-09-29T00:43:07.507Z,965.99
2016-09-29T00:44:08.033Z,966.02
2016-09-29T00:45:07.559Z,966.00
2016-09-29T00:46:08.114Z,965.99
2016-09-29T00:47:07.674Z,965.96
2016-09-29T00:48:08.204Z,965.96
2016-09-29T00:49:07.691Z,965.93
2016-09-29T00:50:08.254Z,965.93
2016-09-29T00:51:07.806Z,965.89
2016-09-29T00:52:07.236Z,965.91
2016-09-29T00:53:07.854Z,965.89
2016-09-29T00:54:07.403Z,965.86
2016-09-29T00:55:07.834Z,965.84
2016-09-29T00:56:07.402Z,965.83
2016-09-29T00:57:07.936Z,965.81
2016-09-29T00:58:08.175Z,965.81
2016-09-29T00:59:07.659Z,965.76
2016-09-29T01:00:08.219Z,965.75
2016-09-29T01:01:07.784Z,965.73
2016-09-29T01:02:07.254Z,965.78
2016-09-29T01:03:08.310Z,965.71
2016-09-29T01:04:07.856Z,965.74
2016-09-29T01:05:08.143Z,965.72
2016-09-29T01:06:07.453Z,965.70
2016-09-29T01:07:08.253Z,965.65
2016-09-29T01:08:07.708Z,965.66
2016-09-29T01:09:08.208Z,965.65
2016-09-29T01:10:08.029Z,965.64
2016-09-29T01:11:07.283Z,965.65
2016-09-29T01:12:07.804Z,965.64
2016-09-29T01:13:07.360Z,965.62
2016-09-29T01:14:07.986Z,965.58
2016-09-29T01:15:08.184Z,965.56
2016-09-29T01:16:07.740Z,965.56
2016-09-29T01:17:08.518Z,965.57
2016-09-29T01:18:07.499Z,965.52
2016-09-29T01:19:08.030Z,965.54
2016-09-29T01:20:07.325Z,965.49
2016-09-29T01:21:07.902Z,965.50
2016-09-29T01:22:08.056Z,965.51
2016-09-29T01:23:07.597Z,965.50
2016-09-29T01:24:07.903Z,965.53
2016-09-29T01:25:07.751Z,965.49
2016-09-29T01:26:08.272Z,965.51
2016-09-29T01:27:07.880Z,965.50
2016-09-29T01:28:07.503Z,965.58
2016-09-29T01:29:07.423Z,965.54
2016-09-29T01:30:08.021Z,965.55
2016-09-29T01:31:07.850Z,965.54
2016-09-29T01:32:07.491Z,965.62
2016-09-29T01:33:08.012Z,965.56
2016-09-29T01:34:07.777Z,965.58
2016-09-29T01:35:07.230Z,965.54
2016-09-29T01:36:07.777Z,965.57
2016-09-29T01:37:07.313Z,965.51
2016-09-29T01:38:07.829Z,965.56
2016-09-29T01:39:07.340Z,965.51
2016-09-29T01:40:07.903Z,965.51
2016-09-29T01:41:07.399Z,965.51
2016-09-29T01:42:07.952Z,965.47
2016-09-29T01:43:07.563Z,965.49
2016-09-29T01:44:08.090Z,965.47
2016-09-29T01:45:07.620Z,965.44
2016-09-29T01:46:07.799Z,965.44
2016-09-29T01:47:07.339Z,965.43
2016-09-29T01:48:07.822Z,965.42
2016-09-29T01:49:07.434Z,965.41
2016-09-29T01:50:07.995Z,965.34
2016-09-29T01:51:07.490Z,965.35
2016-09-29T01:52:08.054Z,965.33
2016-09-29T01:53:07.520Z,965.34
2016-09-29T01:54:08.061Z,965.30
2016-09-29T01:55:07.558Z,965.32
2016-09-29T01:56:07.481Z,965.28
2016-09-29T01:57:08.219Z,965.30
2016-09-29T01:58:07.772Z,965.27
2016-09-29T01:59:07.310Z,965.28
2016-09-29T02:00:07.869Z,965.31
2016-09-29T02:01:07.442Z,965.27
2016-09-29T02:02:07.987Z,965.28
2016-09-29T02:03:07.412Z,965.29
2016-09-29T02:04:07.892Z,965.28
2016-09-29T02:05:07.612Z,965.28
2016-09-29T02:06:08.136Z,965.28
2016-09-29T02:07:08.019Z,965.28
2016-09-29T02:08:07.599Z,965.30
2016-09-29T02:09:08.118Z,965.25
2016-09-29T02:10:07.751Z,965.25
2016-09-29T02:11:08.307Z,965.28
2016-09-29T02:12:07.846Z,965.26
2016-09-29T02:13:07.411Z,965.27
2016-09-29T02:14:07.964Z,965.29
2016-09-29T02:15:07.580Z,965.26
2016-09-29T02:16:08.156Z,965.24
2016-09-29T02:17:08.208Z,965.28
2016-09-29T02:18:13.464Z,965.25
2016-09-29T02:19:08.044Z,965.30
2016-09-29T02:20:07.851Z,965.31
2016-09-29T02:21:07.473Z,965.30
2016-09-29T02:22:08.125Z,965.28
2016-09-29T02:23:07.705Z,965.25
2016-09-29T02:24:08.207Z,965.26
2016-09-29T02:25:07.737Z,965.27
2016-09-29T02:26:08.310Z,965.28
2016-09-29T02:27:07.862Z,965.24
2016-09-29T02:28:07.377Z,965.25
2016-09-29T02:29:08.017Z,965.24
2016-09-29T02:30:07.494Z,965.26
2016-09-29T02:31:08.090Z,965.26
2016-09-29T02:32:07.679Z,965.26
2016-09-29T02:33:08.199Z,965.26
2016-09-29T02:34:07.663Z,965.26
2016-09-29T02:35:08.463Z,965.29
2016-09-29T02:36:08.054Z,965.29
2016-09-29T02:37:07.584Z,965.31
2016-09-29T02:38:08.151Z,965.26
2016-09-29T02:39:07.649Z,965.30
2016-09-29T02:40:08.249Z,965.28
2016-09-29T02:41:07.860Z,965.25
2016-09-29T02:42:07.531Z,965.23
2016-09-29T02:43:08.040Z,965.26
2016-09-29T02:44:07.572Z,965.23
2016-09-29T02:45:08.170Z,965.25
2016-09-29T02:46:07.731Z,965.23
2016-09-29T02:47:08.312Z,965.24
2016-09-29T02:48:07.828Z,965.24
2016-09-29T02:49:07.367Z,965.22
2016-09-29T02:50:07.834Z,965.25
2016-09-29T02:51:07.402Z,965.25
2016-09-29T02:52:07.510Z,965.28
2016-09-29T02:53:08.013Z,965.28
2016-09-29T02:54:07.854Z,965.25
2016-09-29T02:55:07.433Z,965.27
2016-09-29T02:56:07.935Z,965.28
2016-09-29T02:57:07.434Z,965.30
2016-09-29T02:58:07.979Z,965.25
2016-09-29T02:59:07.521Z,965.25
2016-09-29T03:00:08.019Z,965.22
2016-09-29T03:01:07.548Z,965.20
2016-09-29T03:02:08.077Z,965.20
2016-09-29T03:03:07.699Z,965.18
2016-09-29T03:04:08.162Z,965.17
2016-09-29T03:05:07.894Z,965.13
2016-09-29T03:06:07.331Z,965.13
2016-09-29T03:07:07.917Z,965.11
2016-09-29T03:08:07.517Z,965.10
2016-09-29T03:09:08.196Z,965.10
2016-09-29T03:10:07.809Z,965.13
2016-09-29T03:11:07.329Z,965.10
2016-09-29T03:12:07.885Z,965.11
2016-09-29T03:13:07.411Z,965.12
2016-09-29T03:14:07.919Z,965.10
2016-09-29T03:15:07.391Z,965.13
2016-09-29T03:16:07.887Z,965.13
2016-09-29T03:17:07.530Z,965.10
2016-09-29T03:18:08.071Z,965.06
2016-09-29T03:19:07.606Z,965.07
2016-09-29T03:20:08.086Z,965.04
2016-09-29T03:21:07.629Z,965.01
2016-09-29T03:22:08.174Z,965.01
2016-09-29T03:23:07.698Z,965.00
2016-09-29T03:24:08.213Z,964.95
2016-09-29T03:25:08.065Z,964.93
2016-09-29T03:26:07.561Z,964.94
2016-09-29T03:27:08.199Z,964.96
2016-09-29T03:28:07.812Z,964.88
2016-09-29T03:29:07.227Z,964.86
2016-09-29T03:30:07.581Z,964.88
2016-09-29T03:31:08.078Z,964.88
2016-09-29T03:32:07.680Z,964.84
2016-09-29T03:33:08.219Z,964.87
2016-09-29T03:34:07.810Z,964.84
2016-09-29T03:35:07.352Z,964.81
2016-09-29T03:36:07.907Z,964.87
2016-09-29T03:37:07.557Z,964.76
2016-09-29T03:38:08.213Z,964.78
2016-09-29T03:39:07.731Z,964.82
2016-09-29T03:40:08.272Z,964.76
2016-09-29T03:41:07.774Z,964.77
2016-09-29T03:42:07.377Z,964.77
2016-09-29T03:43:08.037Z,964.79
2016-09-29T03:44:07.549Z,964.77
2016-09-29T03:45:08.051Z,964.79
2016-09-29T03:46:07.529Z,964.79
2016-09-29T03:47:08.036Z,964.80
2016-09-29T03:48:07.551Z,964.84
2016-09-29T03:49:08.129Z,964.76
2016-09-29T03:50:07.687Z,964.74
2016-09-29T03:51:08.251Z,964.71
2016-09-29T03:52:07.740Z,964.76
2016-09-29T03:53:08.321Z,964.76
2016-09-29T03:54:07.814Z,964.76
2016-09-29T03:55:07.271Z,964.74
2016-09-29T03:56:07.913Z,964.75
2016-09-29T03:57:07.735Z,964.76
2016-09-29T03:58:08.339Z,964.72
2016-09-29T03:59:07.860Z,964.74
2016-09-29T04:00:07.441Z,964.70
2016-09-29T04:01:08.047Z,964.70
2016-09-29T04:02:07.553Z,964.70
2016-09-29T04:03:08.159Z,964.72
2016-09-29T04:04:07.651Z,964.68
2016-09-29T04:05:08.148Z,964.68
2016-09-29T04:06:07.648Z,964.65
2016-09-29T04:07:08.220Z,964.60
2016-09-29T04:08:07.652Z,964.64
2016-09-29T04:09:08.285Z,964.60
2016-09-29T04:10:07.802Z,964.60
2016-09-29T04:11:07.320Z,964.61
2016-09-29T04:12:07.814Z,964.61
2016-09-29T04:13:07.325Z,964.61
2016-09-29T04:14:07.781Z,964.63
2016-09-29T04:15:07.371Z,964.59
2016-09-29T04:16:08.014Z,964.62
2016-09-29T04:17:07.657Z,964.53
2016-09-29T04:18:08.204Z,964.55
2016-09-29T04:19:07.781Z,964.50
2016-09-29T04:20:07.240Z,964.49
2016-09-29T04:21:07.851Z,964.45
2016-09-29T04:22:07.286Z,964.44
2016-09-29T04:23:07.793Z,964.43
2016-09-29T04:24:07.258Z,964.44
2016-09-29T04:25:10.640Z,964.47
2016-09-29T04:26:08.183Z,964.45
2016-09-29T04:27:07.675Z,964.43
2016-09-29T04:28:08.255Z,964.39
2016-09-29T04:29:07.853Z,964.36
2016-09-29T04:30:07.427Z,964.39
2016-09-29T04:31:08.096Z,964.37
2016-09-29T04:32:07.616Z,964.40
2016-09-29T04:33:08.175Z,964.36
2016-09-29T04:34:07.656Z,964.37
2016-09-29T04:35:08.254Z,964.35
2016-09-29T04:36:07.693Z,964.32
2016-09-29T04:37:08.231Z,964.30
2016-09-29T04:38:07.793Z,964.29
2016-09-29T04:39:07.292Z,964.30
2016-09-29T04:40:07.827Z,964.32
2016-09-29T04:41:07.404Z,964.32
2016-09-29T04:42:07.533Z,964.31
2016-09-29T04:43:08.174Z,964.33
2016-09-29T04:44:07.751Z,964.31
2016-09-29T04:45:08.400Z,964.29
2016-09-29T04:46:08.019Z,964.27
2016-09-29T04:47:07.586Z,964.27
2016-09-29T04:48:08.123Z,964.25
2016-09-29T04:49:07.670Z,964.26
2016-09-29T04:50:08.255Z,964.27
2016-09-29T04:51:07.785Z,964.26
2016-09-29T04:52:07.242Z,964.30
2016-09-29T04:53:07.771Z,964.27
2016-09-29T04:54:07.372Z,964.29
2016-09-29T04:55:07.965Z,964.25
2016-09-29T04:56:07.555Z,964.23
2016-09-29T04:57:08.043Z,964.21
2016-09-29T04:58:07.617Z,964.21
2016-09-29T04:59:08.206Z,964.20
2016-09-29T05:00:07.757Z,964.24
2016-09-29T05:01:08.315Z,964.24
2016-09-29T05:02:07.882Z,964.19
2016-09-29T05:03:07.427Z,964.24
2016-09-29T05:04:07.914Z,964.21
2016-09-29T05:05:07.741Z,964.24
2016-09-29T05:06:08.370Z,964.22
2016-09-29T05:07:07.916Z,964.22
2016-09-29T05:08:07.421Z,964.21
2016-09-29T05:09:07.943Z,964.26
2016-09-29T05:10:07.521Z,964.25
2016-09-29T05:11:08.035Z,964.25
2016-09-29T05:12:07.580Z,964.25
2016-09-29T05:13:08.182Z,964.24
2016-09-29T05:14:07.764Z,964.24
2016-09-29T05:15:07.300Z,964.24
2016-09-29T05:16:07.862Z,964.23
2016-09-29T05:17:07.511Z,964.23
2016-09-29T05:18:08.128Z,964.22
2016-09-29T05:19:07.653Z,964.25
2016-09-29T05:20:08.204Z,964.25
2016-09-29T05:21:07.743Z,964.25
2016-09-29T05:22:08.308Z,964.22
2016-09-29T05:23:07.906Z,964.24
2016-09-29T05:24:07.470Z,964.19
2016-09-29T05:25:07.311Z,964.21
2016-09-29T05:26:07.791Z,964.22
2016-09-29T05:27:07.297Z,964.24
2016-09-29T05:28:07.833Z,964.23
2016-09-29T05:29:07.998Z,964.22
2016-09-29T05:30:07.531Z,964.21
2016-09-29T05:31:08.006Z,964.21
2016-09-29T05:32:07.486Z,964.19
2016-09-29T05:33:08.039Z,964.19
2016-09-29T05:34:08.767Z,964.21
2016-09-29T05:35:08.393Z,964.18
2016-09-29T05:36:09.623Z,964.21
2016-09-29T05:37:08.167Z,964.17
2016-09-29T05:38:07.641Z,964.17
2016-09-29T05:39:08.336Z,964.18
2016-09-29T05:40:07.930Z,964.20
2016-09-29T05:41:13.426Z,964.16
2016-09-29T05:42:28.929Z,964.20
2016-09-29T05:43:09.543Z,964.22
2016-09-29T05:44:44.164Z,964.22
2016-09-29T05:45:10.343Z,964.19
2016-09-29T05:46:07.403Z,964.21
2016-09-29T05:47:07.962Z,964.21
2016-09-29T05:48:07.523Z,964.20
2016-09-29T05:49:08.036Z,964.22
2016-09-29T05:50:07.608Z,964.23
2016-09-29T05:51:08.298Z,964.22
2016-09-29T05:52:07.808Z,964.28
2016-09-29T05:53:07.306Z,964.27
2016-09-29T05:54:07.826Z,964.30
2016-09-29T05:55:07.289Z,964.28
2016-09-29T05:56:07.866Z,964.23
2016-09-29T05:57:07.433Z,964.26
2016-09-29T05:58:07.989Z,964.24
2016-09-29T05:59:07.552Z,964.25
2016-09-29T06:00:08.068Z,964.26
2016-09-29T06:01:07.943Z,964.28
2016-09-29T06:02:07.413Z,964.28
2016-09-29T06:03:08.082Z,964.25
2016-09-29T06:04:07.650Z,964.27
2016-09-29T06:05:08.206Z,964.22
2016-09-29T06:06:07.870Z,964.28
2016-09-29T06:07:07.332Z,964.28
2016-09-29T06:08:07.921Z,964.24
2016-09-29T06:09:07.590Z,964.26
2016-09-29T06:10:08.087Z,964.24
2016-09-29T06:11:07.642Z,964.31
2016-09-29T06:12:08.182Z,964.28
2016-09-29T06:13:07.723Z,964.33
2016-09-29T06:14:08.292Z,964.27
2016-09-29T06:15:07.912Z,964.27
2016-09-29T06:16:07.384Z,964.26
2016-09-29T06:17:07.524Z,964.26
2016-09-29T06:18:08.156Z,964.22
2016-09-29T06:19:07.642Z,964.25
2016-09-29T06:20:08.218Z,964.24
2016-09-29T06:21:07.820Z,964.21
2016-09-29T06:22:07.377Z,964.24
2016-09-29T06:23:07.875Z,964.23
2016-09-29T06:24:07.329Z,964.24
2016-09-29T06:25:07.928Z,964.27
2016-09-29T06:26:07.523Z,964.23
2016-09-29T06:27:08.048Z,964.25
2016-09-29T06:28:07.670Z,964.23
2016-09-29T06:29:08.210Z,964.20
2016-09-29T06:30:07.756Z,964.18
2016-09-29T06:31:08.332Z,964.16
2016-09-29T06:32:07.849Z,964.14
2016-09-29T06:33:07.322Z,964.19
2016-09-29T06:34:07.797Z,964.18
2016-09-29T06:35:07.293Z,964.16
2016-09-29T06:36:07.753Z,964.10
2016-09-29T06:37:08.320Z,964.11
2016-09-29T06:38:07.943Z,964.13
2016-09-29T06:39:07.462Z,964.08
2016-09-29T06:40:08.073Z,964.12
2016-09-29T06:41:07.591Z,964.14
2016-09-29T06:42:08.164Z,964.16
2016-09-29T06:43:07.743Z,964.10
2016-09-29T06:44:08.296Z,964.11
2016-09-29T06:45:07.893Z,964.16
2016-09-29T06:46:07.462Z,964.14
2016-09-29T06:47:07.995Z,964.13
2016-09-29T06:48:07.601Z,964.07
2016-09-29T06:49:08.144Z,964.12
2016-09-29T06:50:07.684Z,964.10
2016-09-29T06:51:08.197Z,964.13
2016-09-29T06:52:07.688Z,964.14
2016-09-29T06:53:08.198Z,964.13
2016-09-29T06:54:07.703Z,964.14
2016-09-29T06:55:08.313Z,964.15
2016-09-29T06:56:07.774Z,964.14
2016-09-29T06:57:07.310Z,964.15
2016-09-29T06:58:07.822Z,964.11
2016-09-29T06:59:07.283Z,964.15
2016-09-29T07:00:07.906Z,964.12
2016-09-29T07:01:07.451Z,964.11
2016-09-29T07:02:08.005Z,964.13
2016-09-29T07:03:07.523Z,964.10
2016-09-29T07:04:08.074Z,964.12
2016-09-29T07:05:07.537Z,964.06
2016-09-29T07:06:08.098Z,964.08
2016-09-29T07:07:07.598Z,964.11
2016-09-29T07:08:08.166Z,964.12
2016-09-29T07:09:07.755Z,964.13
2016-09-29T07:10:08.301Z,964.10
2016-09-29T07:11:07.882Z,964.11
2016-09-29T07:12:07.476Z,964.13
2016-09-29T07:13:08.101Z,964.07
2016-09-29T07:14:14.788Z,964.13
2016-09-29T07:15:07.314Z,964.17
2016-09-29T07:16:07.899Z,964.14
2016-09-29T07:17:07.530Z,964.14
2016-09-29T07:18:08.119Z,964.14
2016-09-29T07:19:07.693Z,964.12
2016-09-29T07:20:08.243Z,964.15
2016-09-29T07:21:07.862Z,964.15
2016-09-29T07:22:07.468Z,964.15
2016-09-29T07:23:08.016Z,964.10
2016-09-29T07:24:07.651Z,964.10
2016-09-29T07:25:08.295Z,964.10
2016-09-29T07:26:07.899Z,964.10
2016-09-29T07:27:07.486Z,964.12
2016-09-29T07:28:08.036Z,964.13
2016-09-29T07:29:07.557Z,964.09
2016-09-29T07:30:08.135Z,964.12
2016-09-29T07:31:07.661Z,964.13
2016-09-29T07:32:08.323Z,964.09
2016-09-29T07:33:07.877Z,964.11
2016-09-29T07:34:07.444Z,964.11
2016-09-29T07:35:08.018Z,964.13
2016-09-29T07:36:07.664Z,964.11
2016-09-29T07:37:08.294Z,964.09
2016-09-29T07:38:07.831Z,964.07
2016-09-29T07:39:07.475Z,964.07
2016-09-29T07:40:08.107Z,964.07
2016-09-29T07:41:07.704Z,964.10
2016-09-29T07:42:08.242Z,964.03
2016-09-29T07:43:07.718Z,964.06
2016-09-29T07:44:08.245Z,964.02
2016-09-29T07:45:07.716Z,964.01
2016-09-29T07:46:08.255Z,964.03
2016-09-29T07:47:07.852Z,964.00
2016-09-29T07:48:07.445Z,964.02
2016-09-29T07:49:07.978Z,963.98
2016-09-29T07:50:07.477Z,963.99
2016-09-29T07:51:08.131Z,964.01
2016-09-29T07:52:07.772Z,963.96
2016-09-29T07:53:07.359Z,963.96
2016-09-29T07:54:07.867Z,963.90
2016-09-29T07:55:07.384Z,963.88
2016-09-29T07:56:07.834Z,963.91
2016-09-29T07:57:07.311Z,963.89
2016-09-29T07:58:07.862Z,963.89
2016-09-29T07:59:07.397Z,963.90
2016-09-29T08:00:07.908Z,963.90
2016-09-29T08:01:07.508Z,963.90
2016-09-29T08:02:08.102Z,963.84
2016-09-29T08:03:07.679Z,963.86
2016-09-29T08:04:08.263Z,963.82
2016-09-29T08:05:07.969Z,963.88
2016-09-29T08:06:07.459Z,963.87
2016-09-29T08:07:08.101Z,963.87
2016-09-29T08:08:07.597Z,963.85
2016-09-29T08:09:08.304Z,963.84
2016-09-29T08:10:07.828Z,963.88
2016-09-29T08:11:07.248Z,963.89
2016-09-29T08:12:08.292Z,963.87
2016-09-29T08:13:07.868Z,963.88
2016-09-29T08:14:07.356Z,963.86
2016-09-29T08:15:07.862Z,963.86
2016-09-29T08:16:07.396Z,963.86
2016-09-29T08:17:08.023Z,963.88
2016-09-29T08:18:07.585Z,963.85
2016-09-29T08:19:08.076Z,963.84
2016-09-29T08:20:07.672Z,963.82
2016-09-29T08:21:08.257Z,963.84
2016-09-29T08:22:07.889Z,963.78
2016-09-29T08:23:07.425Z,963.78
2016-09-29T08:24:08.026Z,963.78
2016-09-29T08:25:07.486Z,963.73
2016-09-29T08:26:08.084Z,963.70
2016-09-29T08:27:07.638Z,963.67
2016-09-29T08:28:08.239Z,963.71
2016-09-29T08:29:07.735Z,963.71
2016-09-29T08:30:08.313Z,963.69
2016-09-29T08:31:07.808Z,963.69
2016-09-29T08:32:07.304Z,963.71
2016-09-29T08:33:07.905Z,963.68
2016-09-29T08:34:07.427Z,963.68
2016-09-29T08:35:07.954Z,963.64
2016-09-29T08:36:07.487Z,963.61
2016-09-29T08:37:07.957Z,963.61
2016-09-29T08:38:07.534Z,963.57
2016-09-29T08:39:07.994Z,963.57
2016-09-29T08:40:07.508Z,963.55
2016-09-29T08:41:08.017Z,963.52
2016-09-29T08:42:07.496Z,963.53
2016-09-29T08:43:08.057Z,963.47
2016-09-29T08:44:07.526Z,963.47
2016-09-29T08:45:08.051Z,963.48
2016-09-29T08:46:07.659Z,963.53
2016-09-29T08:47:08.283Z,963.46
2016-09-29T08:48:07.775Z,963.44
2016-09-29T08:49:07.373Z,963.44
2016-09-29T08:50:07.917Z,963.42
2016-09-29T08:51:07.509Z,963.40
2016-09-29T08:52:08.139Z,963.42
2016-09-29T08:53:07.622Z,963.43
2016-09-29T08:54:08.143Z,963.41
2016-09-29T08:55:07.685Z,963.37
2016-09-29T08:56:08.238Z,963.35
2016-09-29T08:57:07.829Z,963.40
2016-09-29T08:58:07.317Z,963.33
2016-09-29T08:59:07.837Z,963.31
2016-09-29T09:00:07.338Z,963.31
2016-09-29T09:01:07.887Z,963.33
2016-09-29T09:02:07.449Z,963.29
2016-09-29T09:03:07.930Z,963.32
2016-09-29T09:04:07.449Z,963.27
2016-09-29T09:05:07.998Z,963.30
2016-09-29T09:06:07.584Z,963.26
2016-09-29T09:07:08.180Z,963.23
2016-09-29T09:08:07.752Z,963.21
2016-09-29T09:09:07.252Z,963.19
2016-09-29T09:10:07.780Z,963.19
2016-09-29T09:11:07.384Z,963.18
2016-09-29T09:12:08.005Z,963.16
2016-09-29T09:13:07.694Z,963.16
2016-09-29T09:14:08.266Z,963.19
2016-09-29T09:15:07.811Z,963.09
2016-09-29T09:16:07.357Z,963.07
2016-09-29T09:17:07.985Z,963.12
2016-09-29T09:18:07.587Z,963.10
2016-09-29T09:19:08.157Z,963.09
2016-09-29T09:20:07.647Z,963.08
2016-09-29T09:21:08.213Z,963.08
2016-09-29T09:22:07.687Z,963.03
2016-09-29T09:23:08.313Z,963.01
2016-09-29T09:24:07.887Z,962.98
2016-09-29T09:25:07.506Z,962.94
2016-09-29T09:26:08.084Z,962.98
2016-09-29T09:27:07.767Z,962.95
2016-09-29T09:28:07.337Z,962.92
2016-09-29T09:29:07.901Z,962.91
2016-09-29T09:30:07.488Z,962.87
2016-09-29T09:31:07.933Z,962.89
2016-09-29T09:32:08.112Z,962.87
2016-09-29T09:33:07.726Z,962.83
2016-09-29T09:34:08.305Z,962.81
2016-09-29T09:35:07.785Z,962.81
2016-09-29T09:36:07.277Z,962.79
2016-09-29T09:37:07.856Z,962.77
2016-09-29T09:38:07.439Z,962.75
2016-09-29T09:39:08.046Z,962.73
2016-09-29T09:40:07.664Z,962.73
2016-09-29T09:41:08.286Z,962.70
2016-09-29T09:42:07.828Z,962.66
2016-09-29T09:43:07.306Z,962.68
2016-09-29T09:44:07.847Z,962.68
2016-09-29T09:45:07.323Z,962.63
2016-09-29T09:46:07.954Z,962.65
2016-09-29T09:47:08.084Z,962.67
2016-09-29T09:48:07.673Z,962.62
2016-09-29T09:49:08.236Z,962.60
2016-09-29T09:50:07.777Z,962.58
2016-09-29T09:51:07.247Z,962.55
2016-09-29T09:52:07.831Z,962.52
2016-09-29T09:53:07.355Z,962.55
2016-09-29T09:54:07.945Z,962.52
2016-09-29T09:55:07.497Z,962.50
2016-09-29T09:56:08.150Z,962.46
2016-09-29T09:57:07.746Z,962.46
2016-09-29T09:58:08.337Z,962.46
2016-09-29T09:59:07.933Z,962.47
2016-09-29T10:00:07.444Z,962.44
2016-09-29T10:01:07.948Z,962.40
2016-09-29T10:02:07.488Z,962.38
2016-09-29T10:03:17.938Z,962.38
2016-09-29T10:04:07.536Z,962.39
2016-09-29T10:05:08.127Z,962.36
2016-09-29T10:06:07.671Z,962.39
2016-09-29T10:07:08.287Z,962.36
2016-09-29T10:08:07.826Z,962.33
2016-09-29T10:09:07.346Z,962.26
2016-09-29T10:10:07.943Z,962.25
2016-09-29T10:11:07.532Z,962.29
2016-09-29T10:12:08.156Z,962.22
2016-09-29T10:13:07.897Z,962.24
2016-09-29T10:14:08.032Z,962.19
2016-09-29T10:15:07.526Z,962.19
2016-09-29T10:16:08.091Z,962.19
2016-09-29T10:17:07.823Z,962.24
2016-09-29T10:18:07.375Z,962.15
2016-09-29T10:19:07.963Z,962.16
2016-09-29T10:20:07.487Z,962.14
2016-09-29T10:21:08.045Z,962.15
2016-09-29T10:22:07.603Z,962.14
2016-09-29T10:23:08.197Z,962.10
2016-09-29T10:24:07.807Z,962.08
2016-09-29T10:25:07.360Z,962.08
2016-09-29T10:26:07.945Z,962.09
2016-09-29T10:27:07.580Z,962.05
2016-09-29T10:28:08.101Z,962.10
2016-09-29T10:29:07.757Z,962.05
2016-09-29T10:30:08.347Z,962.01
2016-09-29T10:31:07.845Z,962.04
2016-09-29T10:32:07.336Z,961.95
2016-09-29T10:33:07.964Z,961.96
2016-09-29T10:34:07.463Z,962.00
2016-09-29T10:35:07.674Z,961.97
2016-09-29T10:36:08.345Z,961.95
2016-09-29T10:37:08.000Z,961.94
2016-09-29T10:38:07.456Z,961.90
2016-09-29T10:39:08.104Z,961.91
2016-09-29T10:40:07.628Z,961.93
2016-09-29T10:41:08.139Z,961.88
2016-09-29T10:42:07.634Z,961.91
2016-09-29T10:43:08.138Z,961.87
2016-09-29T10:44:07.692Z,961.85
2016-09-29T10:45:08.301Z,961.79
2016-09-29T10:46:07.824Z,961.77
2016-09-29T10:47:07.386Z,961.77
2016-09-29T10:48:07.913Z,961.75
2016-09-29T10:49:07.513Z,961.79
2016-09-29T10:50:08.052Z,961.77
2016-09-29T10:51:07.674Z,961.74
2016-09-29T10:52:08.236Z,961.72
2016-09-29T10:53:07.861Z,961.69
2016-09-29T10:54:07.395Z,961.71
2016-09-29T10:55:07.951Z,961.67
2016-09-29T10:56:07.521Z,961.69
2016-09-29T10:57:08.148Z,961.64
2016-09-29T10:58:07.769Z,961.66
2016-09-29T10:59:07.445Z,961.62
2016-09-29T11:00:07.996Z,961.64
2016-09-29T11:01:07.563Z,961.62
2016-09-29T11:02:08.136Z,961.54
2016-09-29T11:03:07.657Z,961.58
2016-09-29T11:04:08.296Z,961.54
2016-09-29T11:05:07.889Z,961.48
2016-09-29T11:06:07.404Z,961.47
2016-09-29T11:07:07.939Z,961.45
2016-09-29T11:08:07.511Z,961.41
2016-09-29T11:09:08.144Z,961.37
2016-09-29T11:10:07.699Z,961.39
2016-09-29T11:11:08.256Z,961.37
2016-09-29T11:12:07.844Z,961.34
2016-09-29T11:13:07.514Z,961.32
2016-09-29T11:14:08.123Z,961.36
2016-09-29T11:15:07.730Z,961.28
2016-09-29T11:16:08.366Z,961.28
2016-09-29T11:17:08.201Z,961.29
2016-09-29T11:18:07.913Z,961.26
2016-09-29T11:19:07.488Z,961.27
2016-09-29T11:20:08.135Z,961.23
2016-09-29T11:21:07.708Z,961.16
2016-09-29T11:22:08.251Z,961.15
2016-09-29T11:23:07.797Z,961.15
2016-09-29T11:24:07.247Z,961.14
2016-09-29T11:25:07.847Z,961.08
2016-09-29T11:26:07.434Z,961.07
2016-09-29T11:27:08.044Z,961.05
2016-09-29T11:28:07.583Z,961.03
2016-09-29T11:29:08.185Z,960.96
2016-09-29T11:30:07.776Z,961.00
2016-09-29T11:31:07.436Z,960.96
2016-09-29T11:32:08.018Z,960.93
2016-09-29T11:33:07.588Z,960.91
2016-09-29T11:34:08.105Z,960.95
2016-09-29T11:35:07.714Z,960.91
2016-09-29T11:36:08.350Z,960.90
2016-09-29T11:37:07.858Z,960.85
2016-09-29T11:38:07.398Z,960.85
2016-09-29T11:39:07.961Z,960.79
2016-09-29T11:40:07.480Z,960.81
2016-09-29T11:41:08.046Z,960.78
2016-09-29T11:42:07.667Z,960.76
2016-09-29T11:43:08.502Z,960.73
2016-09-29T11:44:08.076Z,960.69
2016-09-29T11:45:07.705Z,960.75
2016-09-29T11:46:08.298Z,960.69
2016-09-29T11:47:07.783Z,960.69
2016-09-29T11:48:07.435Z,960.64
2016-09-29T11:49:07.898Z,960.62
2016-09-29T11:50:07.434Z,960.64
2016-09-29T11:51:07.923Z,960.68
2016-09-29T11:52:07.410Z,960.66
2016-09-29T11:53:07.997Z,960.60
2016-09-29T11:54:07.551Z,960.60
2016-09-29T11:55:08.197Z,960.65
2016-09-29T11:56:07.694Z,960.59
2016-09-29T11:57:08.257Z,960.58
2016-09-29T11:58:07.846Z,960.51
2016-09-29T11:59:07.340Z,960.49
2016-09-29T12:00:07.915Z,960.52
2016-09-29T12:01:07.525Z,960.53
2016-09-29T12:02:08.067Z,960.51
2016-09-29T12:03:07.533Z,960.49
2016-09-29T12:04:08.086Z,960.47
2016-09-29T12:05:07.681Z,960.47
2016-09-29T12:06:08.240Z,960.45
2016-09-29T12:07:07.883Z,960.43
2016-09-29T12:08:07.351Z,960.45
2016-09-29T12:09:07.908Z,960.38
2016-09-29T12:10:07.412Z,960.38
2016-09-29T12:11:07.973Z,960.37
2016-09-29T12:12:07.534Z,960.38
2016-09-29T12:13:08.065Z,960.37
2016-09-29T12:14:07.637Z,960.30
2016-09-29T12:15:08.202Z,960.29
2016-09-29T12:16:07.759Z,960.31
2016-09-29T12:17:07.341Z,960.23
2016-09-29T12:18:07.897Z,960.27
2016-09-29T12:19:07.392Z,960.19
2016-09-29T12:20:07.927Z,960.23
2016-09-29T12:21:07.435Z,960.19
2016-09-29T12:22:08.016Z,960.21
2016-09-29T12:23:07.488Z,960.17
2016-09-29T12:24:08.135Z,960.18
2016-09-29T12:25:07.753Z,960.12
2016-09-29T12:26:08.328Z,960.17
2016-09-29T12:27:07.894Z,960.07
2016-09-29T12:28:07.444Z,960.10